Amsterdam, NY (12010)

9:09 PM EDT on August 01, 2015 (GMT -0400)
East End @ Kirk Douglas House | | Change Station
CLOSE
Current Station
Personal Weather Station
Location: Amsterdam, NY
Elevation: 276 ft
Nearby Weather Stations

Elev 276 ft 42.93 °N, 74.18 °W | Updated 5 seconds ago

Clear
Clear
71.5 °F
Feels Like 76 °F
N
0.0
Wind Variable Wind from West
Gusts 0.0 mph

Today
High -- | Low -- °F
--% Chance of Precip.
Yesterday
High -- | Low -- °F
Precip. -- in
5:47 AM 8:17 PM
Waning Gibbous, 96% visible
Pressure 29.79 in
Visibility 10.0 miles
Clouds Scattered Clouds 6500 ft
Heat Index 76 °F
Dew Point 58 °F
Humidity 63%
Rainfall 0.02 in
Snow Depth Not available.
UV 1 out of 12
Pollen 7.10 out of 12
Air Quality Not available.
Flu Activity Not available.
METAR KSCH 012254Z 31009G16KT 10SM SCT065 26/11 A2979

More Conditions Fewer Conditions

Pressure 29.79 in
Visibility 10.0 miles
Clouds Scattered Clouds 6500 ft
Heat Index 76 °F
Dew Point 58 °F
Humidity 63%
Rainfall 0.02 in
Snow Depth Not available.
UV 1 out of 12
Pollen 7.10 out of 12
Air Quality Not available.
Flu Activity Not available.
METAR KSCH 012254Z 31009G16KT 10SM SCT065 26/11 A2979

More Conditions Fewer Conditions

10-Day Weather Forecast

×

Almanac

Astronomy

Aug. 01, 2015 Rise Set
Actual Time
Civil Twilight
Nautical Twilight
Astronomical Twilight
Moon
Length of Visible Light
Length of Day
Tomorrow will be .
, % of the Moon is Illuminated

Today's Extremes

State Highs State Lows

Community

WunderPhotos

Upload Photos

1,843,122 photos uploaded!

WunderBlogs® & News

Nearby

Air Quality

  Air Quality AQ Index Pollutant
Not available.

Snow Depth

Station Depth Elevation

Earthquake Activity

City Distance Mag. Time & Date
Minimum magnitude displayed is 2.5.

Coastal Water Temperatures

Place Temperature

Stations

Nearby Weather Stations

Station Location Temp. Windchill Dew Point Humidity Wind Precip. Elev Updated Type